Archival Weather

Václav Havel Intl Apt

Prague, Czechia (LKPR)

Report from: Monday, May 29, 2023 9:30 AM CEST
Current time: Sunday, July 14, 2024 12:09 PM CEST

Current weather – Weather history – Daily summaries
Weather forecast

Temperature17.0°C (62.6°F)
Dew point6.0°C (42.8°F)
Winds 6 kts (3.1 m/s, 6.9 mph) Vrb
Winds variableWinds variable from North-Northwest (340°) to Northeast (50°)
Clouds Sky clear
Altimeter30.12 in.Hg (1020 mB)
Relative humidity48 %
Density altitude145 ft. (44 m)
Remarks Ceiling and visibility OK
No significant changes expected in the next two hours
Flight conditions Visual Meteorological Conditions
Raw dataLKPR 290730Z 01006KT 340V050 CAVOK 17/06 Q1020 NOSIG
An error has occurred. This application may no longer respond until reloaded. Reload 🗙